Home Previsioni Grafici Avvisi Live Satellite Webcam Min e Max Mappe Metar Effemeridi Terremoti Info Glossario

Report METAR

 

LIEB - Cape Bellavista, Italy
Distance from station: SE 54km
Dati ricevuti: 16/07/2018 16:55
Sereno
Sereno
 Vento da SSO
Vento: SSO 19 km/h
Temperatura: 28°C
Indice di Calore: 32°C
P.to Rugiada: 24°C
Umidità: 79%
Barometro: 1011 hPa
Summary: Sereno
Visibility: superiore a 10 km
2018/07/16 14:55 LIEB 161455Z 21010KT CAVOK 28/24 Q1011 RMK SCT SCT070 QUK 3 QUL 0 VIS MAR 16 KM MON LIB VIS MIN 9999
LIEO - Olbia/Costa Smer, Italy
Distance from station: NNE 70km
Dati ricevuti: 16/07/2018 15:50
DATI Obsoleti
Parz. nuvoloso
Parz. nuvoloso
 Vento da ESE
Vento: ESE 20 km/h
Temperatura: 33°C
Indice di Calore: 34°C
P.to Rugiada: 19°C
Umidità: 44%
Barometro: 1009 hPa
Nuvole: Parz. nuvoloso
Visibility: 10 km
Cloud details: Parz. nuvoloso 1524 m
2018/07/16 13:50 LIEO 161350Z 11011KT 080V160 9999 SCT050 33/19 Q1009
 
LIEA - Alghero, Italy
Distance from station: ONO 94km
Dati ricevuti: 16/07/2018 15:50
DATI Obsoleti
Sereno
Sereno
 Vento da OSO
Vento: OSO 48 km/h, Raffica: 69 km/h
Temperatura: 31°C
Indice di Calore: 33°C
P.to Rugiada: 20°C
Umidità: 52%
Barometro: 1011 hPa
Summary: Sereno
Visibility: superiore a 10 km
2018/07/16 13:50 LIEA 161350Z 24026G37KT CAVOK 31/20 Q1011
LIED - Decimomannu(It-A, Italy
Distance from station: SSO 107km
Dati ricevuti: 16/07/2018 16:55
Parz. nuvoloso
Parz. nuvoloso
 Vento da S
Vento: S 30 km/h
Temperatura: 32°C
Indice di Calore: 43°C
P.to Rugiada: 27°C
Umidità: 75%
Barometro: 1010 hPa
Nuvole: Parz. nuvoloso
Visibility: 10 km
Cloud details: Few Clouds 762 m
Parz. nuvoloso 1829 m
2018/07/16 14:55 LIED 161455Z 18016KT 9999 FEW025 SCT060 32/27 Q1010 RMK BKN VIS MIN 9999 WIND THR35 26016KT WIND THR17 /////KT BLU
 
LIEE - Cagliari/Elmas(A, Italy
Distance from station: S 116km
Dati ricevuti: 16/07/2018 15:50
DATI Obsoleti
Few Clouds
Few Clouds
 Vento da SE
Vento: SE 37 km/h
Temperatura: 29°C
Indice di Calore: 32°C
P.to Rugiada: 23°C
Umidità: 70%
Barometro: 1010 hPa
Nuvole: Few Clouds
Visibility: 10 km
Cloud details: Few Clouds 1524 m
2018/07/16 13:50 LIEE 161350Z 14020KT 9999 FEW050 29/23 Q1010
LIEC - Cape Carbonara, Italy
Distance from station: S 133km
Dati ricevuti: 16/07/2018 16:55
Few Clouds
Few Clouds
 Vento da ESE
Vento: ESE 19 km/h
Temperatura: 29°C
Indice di Calore: 36°C
P.to Rugiada: 26°C
Umidità: 84%
Barometro: 1012 hPa
Nuvole: Few Clouds
Visibility: 10 km
Cloud details: Few Clouds 671 m
2018/07/16 14:55 LIEC 161455Z 12010KT 9999 FEW022 29/26 Q1012 RMK BKN BKN060 QUK 2 QUL 0 VIS MAR 14 KM VIS MIN 9999
 
LFKF - Figari (aut), France
Distance from station: N 137km
Dati ricevuti: 16/07/2018 17:30
Parz. nuvoloso
Parz. nuvoloso
 Vento da O
Vento: O 39 km/h
Temperatura: 29°C
Indice di Calore: 31°C
P.to Rugiada: 21°C
Umidità: 62%
Barometro: 1010 hPa
Nuvole: Parz. nuvoloso
Visibility: 10 km
Cloud details: Parz. nuvoloso 975 m
2018/07/16 15:30 LFKF 161530Z AUTO 27021KT 9999 SCT032 29/21 Q1010 TEMPO 25015G25KT TSRA FEW025 SCT050CB BKN080
LFKS - Solenzara (fafb), France
Distance from station: N 182km
Dati ricevuti: 16/07/2018 17:30
Temporale
Temporale
 Vento da OSO
Vento: OSO 24 km/h
Temperatura: 34°C
P.to Rugiada: 14°C
Umidità: 30%
Barometro: 1009 hPa
Nuvole: Temporale
Visibility: 10 km
2018/07/16 15:30 LFKS 161530Z AUTO 25013KT 200V320 9999 ///CB 34/14 Q1009